M I D A S
Marine Information and Data Acquisition System
Tripno 718 of the Zeeleeuw from 2004-05-17 06:24:55 to 2004-05-17 15:07:46
Back to CruiseResearch ActivitiesStationsMapUnderway DataData graphs

EquipmentUnitsComment
TimeDGPSUTC
LatitudeDGPSDM.mWGS84
LongitudeDGPSDM.mWGS84
HeadingGyrodeg 
SOGDGPSknotsSpeed over ground
COGDGPSdegCourse over ground
DepthEcho soundermeters200 kHz
Missing or incorrect values are displayed as -999
Navigation data collected by the RV Zeeleeuw from 2004-05-17 06:24:55 to 2004-05-17 15:07:46
Time Latitude Longitude Heading SOG COG Depth
2004-05-17 06:25:58 51°13.599 2°56.09 122.6 0.7 302 5.9
2004-05-17 06:26:58 51°13.608 2°56.065 121.1 1.7 298 7.1
2004-05-17 06:27:59 51°13.627 2°56.006 122.5 2.8 297 -999
2004-05-17 06:28:59 51°13.651 2°55.935 119.3 3.4 296 -999
2004-05-17 06:29:59 51°13.677 2°55.819 103.6 5.1 281 -999
2004-05-17 06:30:58 51°13.685 2°55.757 62.4 1.1 34 12
2004-05-17 06:31:58 51°13.717 2°55.77 359 0.8 6 10.9
2004-05-17 06:32:57 51°13.721 2°55.771 342 1 339 10.1
2004-05-17 06:33:58 51°13.748 2°55.736 319.8 2.7 317 7.5
2004-05-17 06:34:57 51°13.79 2°55.679 327.1 3.8 324 7.6
2004-05-17 06:35:57 51°13.845 2°55.635 348.2 3.4 345 8.8
2004-05-17 06:36:58 51°13.906 2°55.637 3.6 3.5 356 7.7
2004-05-17 06:37:57 51°13.944 2°55.628 350.3 1.8 346 9.3
2004-05-17 06:38:57 51°13.955 2°55.623 347.6 0.1 318 9.9
2004-05-17 06:39:57 51°13.957 2°55.622 347.7 0.2 334 9.6
2004-05-17 06:40:57 51°13.955 2°55.624 350.1 0.3 195 10
2004-05-17 06:41:57 51°13.95 2°55.626 354.3 0.2 201 9.6
2004-05-17 06:42:57 51°13.954 2°55.624 351 0.4 339 9.7
2004-05-17 06:43:57 51°13.961 2°55.62 346.9 0.5 341 9.6
2004-05-17 06:44:57 51°13.968 2°55.615 344 0.6 335 9.7
2004-05-17 06:45:58 51°13.971 2°55.612 344 0.2 176 9.7
2004-05-17 06:46:57 51°13.97 2°55.611 342.7 0.1 351 9.7
2004-05-17 06:47:57 51°13.972 2°55.607 339.5 0.3 325 9.9
2004-05-17 06:48:58 51°13.993 2°55.583 326.6 3 323 9.8
2004-05-17 06:49:58 51°14.068 2°55.492 330.2 7.6 325 9.9
2004-05-17 06:50:59 51°14.197 2°55.351 330.2 9.8 324 9.9
2004-05-17 06:51:58 51°14.318 2°55.175 321.5 10.1 315 9.7
2004-05-17 06:52:58 51°14.421 2°54.96 310 10.3 304 10.2
2004-05-17 06:53:57 51°14.551 2°54.796 338.8 10.2 328 8.8
2004-05-17 06:54:57 51°14.704 2°54.693 354 10 343 8.6
2004-05-17 06:55:58 51°14.859 2°54.589 343.9 10.1 332 8.4
2004-05-17 06:56:57 51°15.007 2°54.482 354.3 9.7 342 7.6
2004-05-17 06:57:57 51°15.156 2°54.377 353 9.6 344 7.8
2004-05-17 06:58:58 51°15.311 2°54.294 350 9.8 337 8.2
2004-05-17 06:59:58 51°15.46 2°54.188 343.8 10 331 8.7
2004-05-17 07:00:58 51°15.607 2°54.068 350.4 9.8 340 9.4
2004-05-17 07:01:57 51°15.761 2°54.023 6.2 9.5 355 9.9
2004-05-17 07:02:55 51°15.911 2°54.029 17.7 9.3 9 10.3
2004-05-17 07:03:57 51°16.027 2°54.096 34.9 5.6 24 10.5
2004-05-17 07:04:57 51°16.102 2°54.134 32.9 4.2 23 10.7
2004-05-17 07:05:57 51°16.163 2°54.204 50.1 5.7 45 10.7
2004-05-17 07:06:57 51°16.248 2°54.281 32.7 5 22 10.8
2004-05-17 07:07:55 51°16.281 2°54.303 39.7 0.5 327 10.9
2004-05-17 07:08:58 51°16.282 2°54.287 34.6 0.7 268 10.9
2004-05-17 07:09:57 51°16.281 2°54.27 35.9 0.8 264 10.9
2004-05-17 07:10:57 51°16.278 2°54.251 37.3 0.8 255 10.9
2004-05-17 07:11:57 51°16.274 2°54.231 39.1 0.8 251 10.9
2004-05-17 07:12:57 51°16.269 2°54.21 41.3 0.9 247 11
2004-05-17 07:13:57 51°16.284 2°54.204 29.2 5.2 9 10.9
2004-05-17 07:14:57 51°16.418 2°54.035 318.6 13.2 307 11
2004-05-17 07:15:57 51°16.537 2°53.721 311.2 13.9 301 11.1
2004-05-17 07:16:57 51°16.665 2°53.416 316 13.7 306 10.7
2004-05-17 07:17:57 51°16.807 2°53.136 320.3 13.5 310 9.8
2004-05-17 07:18:56 51°16.951 2°52.892 325.3 12.8 314 8
2004-05-17 07:19:57 51°17.099 2°52.621 323.8 13.2 313 8.5
2004-05-17 07:20:57 51°17.256 2°52.375 327.7 13.3 318 9.2
2004-05-17 07:21:57 51°17.422 2°52.142 329.5 13.3 319 9.7
2004-05-17 07:22:57 51°17.588 2°51.906 330.2 13.3 319 9.3
2004-05-17 07:23:58 51°17.756 2°51.669 329.5 13.2 318 9.2
2004-05-17 07:24:56 51°17.916 2°51.441 331.1 13.4 320 9.8
2004-05-17 07:25:57 51°18.086 2°51.197 329.2 13.6 318 11.2
2004-05-17 07:26:57 51°18.225 2°50.994 333.6 8.5 320 12.4
2004-05-17 07:27:57 51°18.323 2°50.92 7.8 5.3 356 12.8
2004-05-17 07:28:57 51°18.393 2°50.96 36.7 4.4 26 13
2004-05-17 07:29:57 51°18.465 2°50.99 18.7 4   13.2
2004-05-17 07:30:56 51°18.478 2°50.97 33.1 1.2 240 13.3
2004-05-17 07:31:57 51°18.467 2°50.943 40.8 1.2 238 13.3
2004-05-17 07:32:57 51°18.457 2°50.918 46.3 1.1 234 13.3
2004-05-17 07:33:58 51°18.446 2°50.894 52.2 1.1 230 13.3
2004-05-17 07:34:58 51°18.434 2°50.872 57.6 1.1 231 13.2
2004-05-17 07:35:58 51°18.423 2°50.853 63.4 0.6 214 13.3
2004-05-17 07:36:58 51°18.428 2°50.899 73.9 3.6 75 13.3
2004-05-17 07:37:58 51°18.492 2°50.861 317.1 6.9 290 13.4
2004-05-17 07:38:58 51°18.443 2°50.642 242.4 10.4 235 13.6
2004-05-17 07:39:58 51°18.293 2°50.513 189.9 10.7 191 13.4
2004-05-17 07:41:05 51°18.07 2°50.445 187.2 14.2 188 12.6
2004-05-17 07:42:05 51°17.84 2°50.32 200.9 15 200 12
2004-05-17 07:43:04 51°17.606 2°50.218 195.5 14.8 194 11.7
2004-05-17 07:44:05 51°17.364 2°50.121 194.8 14.7 194 10.4
2004-05-17 07:45:05 51°17.134 2°49.999 203.3 14.8 202 9.1
2004-05-17 07:46:04 51°16.921 2°49.827 218.5 14.8 215 9.2
2004-05-17 07:47:04 51°16.716 2°49.6 222.8 15.2 220 11.4
2004-05-17 07:48:05 51°16.506 2°49.373 215.4 15 212 14.5
2004-05-17 07:49:04 51°16.312 2°49.133 224.3 15.1 222 13.9
2004-05-17 07:50:04 51°16.127 2°48.865 225.7 15 223 13.4
2004-05-17 07:51:04 51°15.956 2°48.577 232.6 15 230 13
2004-05-17 07:52:04 51°15.792 2°48.281 231.1 14.9 227 12.2
2004-05-17 07:53:05 51°15.606 2°48.016 220.6 14.7 218 11
2004-05-17 07:54:04 51°15.417 2°47.782 221.6 14.7 219 9.9
2004-05-17 07:55:05 51°15.224 2°47.541 219.9 14.5 217 9.1
2004-05-17 07:56:04 51°15.038 2°47.306 219.4 14.6 217 9.1
2004-05-17 07:57:13 51°14.813 2°47.03 218.6 14.9 217 11.7
2004-05-17 07:58:14 51°14.611 2°46.791 217.5 14.8 216 12.5
2004-05-17 07:59:14 51°14.413 2°46.554 217.6 14.9 216 12.1
2004-05-17 08:00:13 51°14.255 2°46.362 217 8.9 216 11.3
2004-05-17 08:01:14 51°14.163 2°46.269 205.3 5.1 208 10.8
2004-05-17 08:02:14 51°14.094 2°46.22 201.3 4.7 206 10.1
2004-05-17 08:03:14 51°13.967 2°46.09 217.3 12.6 218 9.3
2004-05-17 08:04:14 51°13.786 2°45.87 219.1 14 217 8.6
2004-05-17 08:05:14 51°13.598 2°45.638 220.6 14.5 219 9.6
2004-05-17 08:06:14 51°13.416 2°45.379 224.2 14.8 222 10.7
2004-05-17 08:07:13 51°13.238 2°45.121 224.8 14.6 221 11.5
2004-05-17 08:08:12 51°13.061 2°44.866 224.2 14.5 221 11.7
2004-05-17 08:09:13 51°12.877 2°44.603 224.5 14.6 222 11.9
2004-05-17 08:10:13 51°12.696 2°44.343 224.1 14.6 222 11.7
2004-05-17 08:11:12 51°12.518 2°44.088 224 14.5 221 11.3
2004-05-17 08:12:17 51°12.323 2°43.812 223.4 14.5 222 11.2
2004-05-17 08:13:22 51°12.128 2°43.541 223.8 14.2 221 9.3
2004-05-17 08:14:22 51°11.953 2°43.285 225.8 14.1 221 8.6
2004-05-17 08:15:22 51°11.774 2°43.045 224.5 14.3 222 8.7
2004-05-17 08:16:22 51°11.592 2°42.796 221.7 14.7 220 10.1
2004-05-17 08:17:21 51°11.413 2°42.547 224.5 14.5 222 11.1
2004-05-17 08:18:25 51°11.252 2°42.322 223.1 9.3 220 11.8
2004-05-17 08:19:26 51°11.158 2°42.219 213.3 4.9 218 12.1
2004-05-17 08:20:26 51°11.141 2°42.182 248.9 0.3 240 -999
2004-05-17 08:21:26 51°11.135 2°42.172 259.9 0.6 234 12.2
2004-05-17 08:22:25 51°11.129 2°42.157 260 0.8 236 12.3
2004-05-17 08:23:25 51°11.122 2°42.14 260.4 0.8 240 12.4
2004-05-17 08:24:26 51°11.116 2°42.121 264.2 0.8 242 12.3
2004-05-17 08:25:26 51°11.109 2°42.1 267.7 0.9 240 12.4
2004-05-17 08:26:24 51°11.101 2°42.08 267.2 1 242 12.4
2004-05-17 08:27:26 51°11.093 2°42.056 268.2 1 245 12.4
2004-05-17 08:28:26 51°11.086 2°42.032 271.8 1 247 12.4
2004-05-17 08:29:26 51°11.08 2°42.006 277.3 1 251 12.4
2004-05-17 08:30:26 51°11.101 2°41.922 320.1 5.6 309 12.4
2004-05-17 08:31:26 51°11.177 2°41.788 317.2 7.5 308 12.3
2004-05-17 08:32:26 51°11.257 2°41.588 307.7 10.1 304 12.1
2004-05-17 08:33:26 51°11.402 2°41.386 320.8 12.2 314 12.3
2004-05-17 08:34:26 51°11.558 2°41.172 327.3 12.5 322 14.9
2004-05-17 08:35:26 51°11.738 2°41.021 340.2 12.1 334 11.4
2004-05-17 08:36:26 51°11.893 2°40.945 353 8.9 346 8
2004-05-17 08:37:26 51°12.052 2°40.911 10 11.4 11 9
2004-05-17 08:38:26 51°12.255 2°40.98 17.7 12.9 17 9.5
2004-05-17 08:39:26 51°12.455 2°41.116 27 13.1 23 10.3
2004-05-17 08:40:26 51°12.645 2°41.29 34.8 13.2 31 11
2004-05-17 08:41:26 51°12.834 2°41.469 34.8 13.2 31 11.6
2004-05-17 08:42:26 51°13.022 2°41.649 35.6 13.2 31 12.2
2004-05-17 08:43:24 51°13.203 2°41.823 36.2 13.1 33 13
2004-05-17 08:44:26 51°13.387 2°42.03 39.9 13.1 36 13.5
2004-05-17 08:45:24 51°13.56 2°42.221 39.2 13.1 35 14.1
2004-05-17 08:46:24 51°13.74 2°42.419 39.3 13.1 34 14.8
2004-05-17 08:47:24 51°13.92 2°42.617 39.4 13.2 35 15.4
2004-05-17 08:48:26 51°14.108 2°42.82 39 13.3 34 16.2
2004-05-17 08:49:26 51°14.291 2°43.016 39.5 13.3 34 16.6
2004-05-17 08:50:26 51°14.474 2°43.213 39.4 13.3 34 17.4
2004-05-17 08:51:26 51°14.658 2°43.408 39.3 12.4 34 18
2004-05-17 08:52:26 51°14.791 2°43.555 39.6 7.7 33 18.7
2004-05-17 08:53:25 51°14.872 2°43.64 44.9 5 38 18.9
2004-05-17 08:54:26 51°14.92 2°43.724 57.4 3.1 53 18.9
2004-05-17 08:55:25 51°14.929 2°43.752 68.1 0.9 76 18.9
2004-05-17 08:56:26 51°14.931 2°43.774 80.3 0.8 97 18.9
2004-05-17 08:57:27 51°14.929 2°43.793 82.7 0.6 103 19
2004-05-17 08:58:26 51°14.927 2°43.809 81.3 0.6 104 19
2004-05-17 08:59:24 51°14.924 2°43.814 84.7 1 252 19
2004-05-17 09:00:27 51°14.914 2°43.736 81.6 3.8 255 -999
2004-05-17 09:01:27 51°14.89 2°43.626 69.9 4.6 247 -999
2004-05-17 09:02:26 51°14.844 2°43.525 45.3 4.9 226 -999
2004-05-17 09:03:26 51°14.791 2°43.462 26.1 1.9 213 19
2004-05-17 09:04:26 51°14.79 2°43.458 52.2 0.1 219 19.1
2004-05-17 09:05:25 51°14.787 2°43.458 63.6 0.1 185 19.1
2004-05-17 09:06:27 51°14.785 2°43.464 74 1.2 86 19.1
2004-05-17 09:07:26 51°14.764 2°43.526 143.2 3.6 145 19.2
2004-05-17 09:08:27 51°14.693 2°43.48 238.2 7.2 236 18.8
2004-05-17 09:09:26 51°14.624 2°43.187 261.2 13.7 257 18.7
2004-05-17 09:10:26 51°14.586 2°42.824 266.3 13.9 261 18.7
2004-05-17 09:11:26 51°14.559 2°42.46 269 13.7 262 17.8
2004-05-17 09:12:26 51°14.536 2°42.099 270.1 13.7 265 16.3
2004-05-17 09:13:26 51°14.508 2°41.742 270.6 13.4 264 14.9
2004-05-17 09:14:26 51°14.481 2°41.387 269.2 13.5 264 15.2
2004-05-17 09:15:26 51°14.457 2°41.033 273.1 13.4 268 14.9
2004-05-17 09:16:25 51°14.459 2°40.688 275.6 13.2 270 14.2
2004-05-17 09:17:27 51°14.46 2°40.325 277 13.3 271 14.4
2004-05-17 09:18:25 51°14.478 2°39.985 281.2 13.4 275 14.2
2004-05-17 09:19:27 51°14.54 2°39.639 301.4 13.3 295 15.1
2004-05-17 09:20:25 51°14.639 2°39.336 309.9 13.4 303 17.2
2004-05-17 09:21:26 51°14.773 2°39.044 319.1 13.4 313 17.9
2004-05-17 09:22:26 51°14.928 2°38.786 320.7 13.5 313 18.7
2004-05-17 09:23:27 51°15.091 2°38.534 325.6 13.5 319 18.2
2004-05-17 09:24:26 51°15.255 2°38.301 325.1 13.3 319 14.7
2004-05-17 09:25:26 51°15.423 2°38.077 326.3 13.1 322 12.5
2004-05-17 09:26:27 51°15.597 2°37.86 325.7 13 322 11.9
2004-05-17 09:27:26 51°15.767 2°37.65 324.6 13.1 322 11.5
2004-05-17 09:28:26 51°15.944 2°37.446 327.5 13.3 325 11.5
2004-05-17 09:29:26 51°16.134 2°37.262 332.6 13.6 328 18.6
2004-05-17 09:30:27 51°16.331 2°37.068 332.4 13.8 329 27.1
2004-05-17 09:31:27 51°16.52 2°36.882 332.7 10.9 330 27.8
2004-05-17 09:32:26 51°16.614 2°36.81 322.9 3.4 320 27.8
2004-05-17 09:33:26 51°16.628 2°36.796 281.4 0.4 26 27.9
2004-05-17 09:34:26 51°16.633 2°36.799 269.4 0.3 22 28
2004-05-17 09:35:26 51°16.636 2°36.802 263.4 0.2 27 28
2004-05-17 09:36:26 51°16.639 2°36.803 259.4 0.1 19 28.1
2004-05-17 09:37:33 51°16.641 2°36.804 255.5 0.1 39 28.1
2004-05-17 09:38:33 51°16.643 2°36.804 255.4 0.1 330 28.2
2004-05-17 09:39:33 51°16.644 2°36.804 257.3 0.1 316 28.2
2004-05-17 09:40:32 51°16.646 2°36.802 260.5 0.2 326 28.2
2004-05-17 09:41:32 51°16.649 2°36.8 264 0.2 339 28.2
2004-05-17 09:42:33 51°16.647 2°36.756 262.7 5.8 260 27.8
2004-05-17 09:43:32 51°16.692 2°36.522 296.5 12.3 293 27.8
2004-05-17 09:44:33 51°16.81 2°36.219 310.9 13.6 309 28.2
2004-05-17 09:45:33 51°16.951 2°35.935 311.3 13.6 308 26.2
2004-05-17 09:46:32 51°17.085 2°35.663 310.8 13 308 18.2
2004-05-17 09:47:32 51°17.217 2°35.4 310.7 12.5 308 13.5
2004-05-17 09:48:33 51°17.35 2°35.137 310.6 12.5 308 13.1
2004-05-17 09:49:32 51°17.48 2°34.883 310.9 12.7 310 15.8
2004-05-17 09:50:33 51°17.617 2°34.621 309.9 12.9 310 20.9
2004-05-17 09:51:32 51°17.754 2°34.356 310.5 13.3 310 27.5
2004-05-17 09:52:33 51°17.897 2°34.077 310.5 13.4 309 29.9
2004-05-17 09:53:33 51°18.038 2°33.802 310 13.4 309 28
2004-05-17 09:54:33 51°18.18 2°33.528 309.9 13.3 310 24.6
2004-05-17 09:55:32 51°18.316 2°33.259 310.6 13.2 308 21.5
2004-05-17 09:56:36 51°18.464 2°32.967 310.3 13.4 309 25.9
2004-05-17 09:57:33 51°18.597 2°32.702 310.2 13.5 308 30
2004-05-17 09:58:33 51°18.737 2°32.422 309.7 13.5 309 32.2
2004-05-17 09:59:42 51°18.899 2°32.097 310.6 13.7 308 32
2004-05-17 10:00:42 51°19.04 2°31.813 310.5 13.7 308 32.1
2004-05-17 10:01:48 51°19.192 2°31.497 310.6 13.6 308 32.1
2004-05-17 10:02:52 51°19.341 2°31.194 310.5 13.6 308 31.6
2004-05-17 10:03:52 51°19.483 2°30.914 311.6 13.4 311 28.9
2004-05-17 10:04:54 51°19.62 2°30.629 307.2 12.8 306 21.6
2004-05-17 10:05:57 51°19.759 2°30.355 310.1 12.5 311 15.3
2004-05-17 10:07:04 51°19.911 2°30.076 309.9 12.5 312 14.6
2004-05-17 10:08:01 51°20.023 2°29.941 323.7 5.8 336 16
2004-05-17 10:09:04 51°20.07 2°29.967 14.5 1.9 69 14
2004-05-17 10:10:08 51°20.082 2°30.013 13.5 1.8 68 5.1
2004-05-17 10:11:08 51°20.094 2°30.062 10.5 2 67 16.3
2004-05-17 10:12:14 51°20.108 2°30.114 4.1 2.1 68 12.8
2004-05-17 10:13:17 51°20.123 2°30.166 3.1 2 65 16.5
2004-05-17 10:14:24 51°20.14 2°30.219 4.8 2 64 16.5
2004-05-17 10:15:24 51°20.155 2°30.27 7.2 2.1 65 15.5
2004-05-17 10:16:24 51°20.169 2°30.324 7.2 2.1 65 14.1
2004-05-17 10:17:28 51°20.185 2°30.376 7.5 2 63 16.2
2004-05-17 10:18:34 51°20.201 2°30.433 10 2.2 66 14.6
2004-05-17 10:19:33 51°20.322 2°30.576 39.4 13.6 43 14.7
2004-05-17 10:20:44 51°20.444 2°30.993 70.8 15.3 67 16.6
2004-05-17 10:21:44 51°20.541 2°31.371 71.3 15.4 67 18.6
2004-05-17 10:22:50 51°20.649 2°31.787 72.1 15.3 68 24
2004-05-17 10:23:56 51°20.757 2°32.197 72.3 15.1 68 30.8
2004-05-17 10:24:56 51°20.856 2°32.564 72.1 15.1 66 32.4
2004-05-17 10:25:56 51°20.955 2°32.932 72.2 15.2 67 32.1
2004-05-17 10:26:56 51°21.054 2°33.303 71.8 15.2 66 33
2004-05-17 10:27:56 51°21.151 2°33.666 70.6 14.7 66 34.3
2004-05-17 10:28:54 51°21.259 2°34.008 69.9 15.1 63 33.9
2004-05-17 10:29:54 51°21.371 2°34.369 70.3 15.3 64 31.9
2004-05-17 10:30:54 51°21.484 2°34.734 70.4 15.3 64 34.8
2004-05-17 10:31:56 51°21.602 2°35.112 70.3 15.4 63 33
2004-05-17 10:32:57 51°21.717 2°35.487 70.3 15.5 64 32.9
2004-05-17 10:34:00 51°21.835 2°35.874 70.2 15.4 64 34.5
2004-05-17 10:35:01 51°21.947 2°36.249 70.4 15.4 64 33.1
2004-05-17 10:36:04 51°22.062 2°36.637 70.3 15.4 64 33.3
2004-05-17 10:37:10 51°22.187 2°37.033 70.1 15.1 63 32.9
2004-05-17 10:38:13 51°22.305 2°37.407 70.8 14.9 64 32.6
2004-05-17 10:39:18 51°22.428 2°37.79 70.3 15 63 32.9
2004-05-17 10:40:24 51°22.553 2°38.18 70.1 15 63 32.4
2004-05-17 10:41:24 51°22.666 2°38.534 70.4 14.9 63 32
2004-05-17 10:42:24 51°22.779 2°38.89 70.6 14.9 63 32.3
2004-05-17 10:43:28 51°22.9 2°39.268 70.2 15 63 32.3
2004-05-17 10:44:28 51°23.013 2°39.626 70.4 15.1 63 32
2004-05-17 10:45:28 51°23.126 2°39.984 70.4 15 65 32.1
2004-05-17 10:46:31 51°23.244 2°40.36 68.1 15.1 62 31.2
2004-05-17 10:47:28 51°23.356 2°40.698 67.5 15.2 62 32.3
2004-05-17 10:48:31 51°23.478 2°41.073 68.4 15.2 62 29.8
2004-05-17 10:49:36 51°23.606 2°41.46 67.9 15.2 60 29.7
2004-05-17 10:50:36 51°23.73 2°41.813 68.7 15.2 61 30.1
2004-05-17 10:51:41 51°23.858 2°42.201 68.5 15.2 62 27.7
2004-05-17 10:52:41 51°23.98 2°42.559 68.2 15.4 61 25
2004-05-17 10:53:44 51°24.108 2°42.936 68.5 15.3 62 27.7
2004-05-17 10:54:44 51°24.229 2°43.297 68.4 15.3 62 27.3
2004-05-17 10:55:44 51°24.349 2°43.656 68.2 15.3 62 26
2004-05-17 10:56:48 51°24.478 2°44.04 68.7 15.3 62 26.7
2004-05-17 10:57:54 51°24.614 2°44.435 67.5 15.4 61 29.1
2004-05-17 10:58:59 51°24.746 2°44.821 68.2 15.2 61 29.3
2004-05-17 10:59:58 51°24.866 2°45.171 68.3 15.2 61 28
2004-05-17 11:00:59 51°24.99 2°45.531 68 15.2 61 28.5
2004-05-17 11:01:58 51°25.11 2°45.881 68.4 15.3 61 27.1
2004-05-17 11:02:58 51°25.232 2°46.238 68.8 15.3 62 27.6
2004-05-17 11:03:58 51°25.354 2°46.595 68.4 15.2 62 27
2004-05-17 11:04:56 51°25.471 2°46.938 68.2 15.2 61 26.5
2004-05-17 11:05:58 51°25.597 2°47.304 68.2 15.3 61 26.8
2004-05-17 11:06:58 51°25.72 2°47.659 68.5 15.2 61 27.4
2004-05-17 11:07:59 51°25.842 2°48.011 67.6 13.4 61 25.5
2004-05-17 11:08:58 51°25.936 2°48.281 67.7 11.2 60 25.5
2004-05-17 11:09:59 51°25.985 2°48.492 91.3 5.9 78 25.9
2004-05-17 11:10:57 51°26.001 2°48.554 56.6 0.6 84 26.1
2004-05-17 11:11:57 51°26.005 2°48.573 59.8 0.9 68 4.9
2004-05-17 11:12:58 51°26.012 2°48.596 70.8 1 62 26.2
2004-05-17 11:13:58 51°26.022 2°48.621 81.2 1.1 54 26.1
2004-05-17 11:14:59 51°26.033 2°48.649 90.7 1.3 56 26
2004-05-17 11:15:59 51°26.045 2°48.68 101.8 1.5 58 26.3
2004-05-17 11:16:59 51°26.057 2°48.715 114.6 1.6 63 26
2004-05-17 11:17:57 51°26.056 2°48.802 112.6 7.5 97 25.7
2004-05-17 11:18:57 51°26.068 2°49.114 87.5 14.7 80 26
2004-05-17 11:19:58 51°26.123 2°49.516 83.8 15.3 78 25.5
2004-05-17 11:20:57 51°26.175 2°49.91 85.3 15.4 79 25.5
2004-05-17 11:21:59 51°26.226 2°50.324 85.4 15.3 79 25.5
2004-05-17 11:22:59 51°26.275 2°50.726 85.1 15.4 77 25.7
2004-05-17 11:23:59 51°26.358 2°51.118 78.2 15.6 72 27
2004-05-17 11:25:04 51°26.439 2°51.548 80.7 15.5 73 27.8
2004-05-17 11:26:06 51°26.517 2°51.956 80.8 15.5 73 27.4
2004-05-17 11:27:06 51°26.576 2°52.355 86.4 15.3 78 28.9
2004-05-17 11:28:06 51°26.631 2°52.753 86.8 15.3 78 30.5
2004-05-17 11:29:04 51°26.679 2°53.137 88.1 15.1 79 32.4
2004-05-17 11:30:04 51°26.729 2°53.533 87 15.2 78 30.8
2004-05-17 11:31:06 51°26.786 2°53.941 86.1 15.1 77 31
2004-05-17 11:32:06 51°26.842 2°54.335 86 15.3 76 23.7
2004-05-17 11:33:06 51°26.898 2°54.733 85.7 15.3 77 28.9
2004-05-17 11:34:05 51°26.953 2°55.125 86.2 15.3 78 28.8
2004-05-17 11:35:06 51°27.008 2°55.53 85.8 15.3 78 31.6
2004-05-17 11:36:06 51°27.063 2°55.927 86.2 15.2 78 31
2004-05-17 11:37:04 51°27.116 2°56.307 86.1 15.1 77 29
2004-05-17 11:38:06 51°27.171 2°56.716 86.4 15.3 78 22.2
2004-05-17 11:39:06 51°27.225 2°57.116 85.6 15.3 77 26.9
2004-05-17 11:40:06 51°27.278 2°57.513 86.1 15.2 78 24.8
2004-05-17 11:41:04 51°27.326 2°57.897 86.4 15.3 78 20.6
2004-05-17 11:42:06 51°27.38 2°58.307 86.7 15.1 80 20
2004-05-17 11:43:06 51°27.43 2°58.702 85.9 15.2 78 20.3
2004-05-17 11:44:06 51°27.496 2°59.091 77.2 15.2 70 21.9
2004-05-17 11:45:04 51°27.58 2°59.458 77.6 15.2 71 22.8
2004-05-17 11:46:06 51°27.661 2°59.855 80.1 15.1 73 22.2
2004-05-17 11:47:05 51°27.734 3°0.234 80.4 15.1 73 22.3
2004-05-17 11:48:06 51°27.811 3°0.626 80.5 15.1 73 24.6
2004-05-17 11:49:06 51°27.885 3°1.013 80.5 15.2 73 25.4
2004-05-17 11:50:09 51°27.966 3°1.422 80.2 15.5 72 25
2004-05-17 11:51:08 51°28.044 3°1.807 80.2 15.5 72 26.1
2004-05-17 11:52:08 51°28.113 3°2.204 85.5 15.4 77 26.1
2004-05-17 11:53:08 51°28.169 3°2.607 85.7 15.6 77 26
2004-05-17 11:54:09 51°28.226 3°3.018 85.4 15.6 77 25.5
2004-05-17 11:55:09 51°28.275 3°3.369 86.8 10.8 78 25
2004-05-17 11:56:09 51°28.303 3°3.565 88 4.7 71 24.7
2004-05-17 11:57:09 51°28.32 3°3.599 95.2 1.3 36 -999
2004-05-17 11:58:08 51°28.336 3°3.622 103.4 1.4 44 5
2004-05-17 11:59:09 51°28.353 3°3.65 109 1.4 50 24.6
2004-05-17 12:00:09 51°28.368 3°3.682 111.9 1.5 55 24.6
2004-05-17 12:01:08 51°28.382 3°3.717 112.5 1.6 59 24.6
2004-05-17 12:02:08 51°28.396 3°3.755 112.1 1.7 63 24.6
2004-05-17 12:03:09 51°28.41 3°3.797 112.6 1.7 65 24.5
2004-05-17 12:04:09 51°28.422 3°3.84 112.3 1.8 67 24.5
2004-05-17 12:05:09 51°28.434 3°3.89 108.1 3.1 81 24.4
2004-05-17 12:06:09 51°28.435 3°4.075 110.1 9.4 99 23.8
2004-05-17 12:07:09 51°28.351 3°4.371 134.7 13.7 126 22.2
2004-05-17 12:08:09 51°28.213 3°4.674 135.7 14.3 126 19.6
2004-05-17 12:09:09 51°28.073 3°4.976 136.2 14 128 17.4
2004-05-17 12:10:08 51°27.934 3°5.271 135.7 14.1 127 16.9
2004-05-17 12:11:08 51°27.792 3°5.568 136.9 14 128 17.4
2004-05-17 12:12:08 51°27.652 3°5.864 136.1 13.9 128 16.6
2004-05-17 12:13:09 51°27.509 3°6.165 135.9 14 127 16.3
2004-05-17 12:14:08 51°27.37 3°6.454 136.1 13.8 127 16
2004-05-17 12:15:09 51°27.224 3°6.745 138.7 13.9 129 15.2
2004-05-17 12:16:09 51°27.067 3°7.007 146.3 13.6 137 14.5
2004-05-17 12:17:09 51°26.907 3°7.263 143.7 13.6 135 13.8
2004-05-17 12:18:13 51°26.748 3°7.557 138.9 13.7 129 13.1
2004-05-17 12:19:16 51°26.616 3°7.881 129.2 14 119 12.7
2004-05-17 12:20:14 51°26.521 3°8.139 135.8 8.6 124 12.9
2004-05-17 12:21:14 51°26.454 3°8.291 144.2 5.4 127 13.1
2004-05-17 12:22:14 51°26.453 3°8.334 119.5 0.9 22 4.9
2004-05-17 12:23:14 51°26.467 3°8.348 122.7 1 37 5
2004-05-17 12:24:14 51°26.481 3°8.367 128 1.1 46 -999
2004-05-17 12:25:14 51°26.493 3°8.391 130.4 1.2 54 -999
2004-05-17 12:26:15 51°26.506 3°8.418 129.5 1.3 57 13.2
2004-05-17 12:27:16 51°26.517 3°8.448 126.8 1.3 60 13.3
2004-05-17 12:28:13 51°26.528 3°8.478 122.2 1.4 61 13.3
2004-05-17 12:29:15 51°26.539 3°8.511 116 1.5 60 13.4
2004-05-17 12:30:15 51°26.551 3°8.545 108.9 1.6 60 13.5
2004-05-17 12:31:14 51°26.565 3°8.58 102.3 1.6 59 13.5
2004-05-17 12:32:19 51°26.58 3°8.619 97 1.6 58 13.6
2004-05-17 12:33:18 51°26.595 3°8.662 96.7 2.6 75 13.5
2004-05-17 12:34:18 51°26.572 3°8.794 132.8 6.5 120 13.3
2004-05-17 12:35:19 51°26.482 3°8.817 193.7 5.7 182 12.8
2004-05-17 12:36:19 51°26.375 3°8.802 200.2 7.8 194 12.4
2004-05-17 12:37:19 51°26.23 3°8.716 214.5 9.8 213 12.1
2004-05-17 12:38:19 51°26.091 3°8.604 210.1 7.9 208 11.9
2004-05-17 12:39:18 51°26.014 3°8.519 222 4.7 217 11.8
2004-05-17 12:40:18 51°25.981 3°8.447 244 1.3 258 11.7
2004-05-17 12:41:18 51°25.983 3°8.433 239.2 0.5 284 11.7
2004-05-17 12:42:18 51°25.988 3°8.423 249.6 0.5 318 11.7
2004-05-17 12:43:19 51°26.032 3°8.345 320 8 327 11.8
2004-05-17 12:44:19 51°26.208 3°8.412 45 12.7 43 12
2004-05-17 12:45:21 51°26.234 3°8.761 111.7 13.5 104 11.9
2004-05-17 12:46:21 51°26.212 3°9.135 101.7 14.3 95 11.3
2004-05-17 12:47:21 51°26.191 3°9.512 102.4 14.2 95 10.9
2004-05-17 12:48:20 51°26.162 3°9.882 105.2 14.2 98 10.6
2004-05-17 12:49:21 51°26.13 3°10.263 105.2 14.2 97 10.4
2004-05-17 12:50:21 51°26.098 3°10.634 104.8 14.1 98 10.3
2004-05-17 12:51:21 51°26.066 3°11.003 105.6 14 99 9.9
2004-05-17 12:52:20 51°26.036 3°11.364 104.5 13.8 98 9.7
2004-05-17 12:53:21 51°26.005 3°11.738 105.4 14 98 9.5
2004-05-17 12:54:20 51°25.981 3°12.041 104.5 10.1 95 9.5
2004-05-17 12:55:21 51°25.961 3°12.286 106 8.7 98 9.4
2004-05-17 12:56:21 51°25.959 3°12.415 117.2 1 46 9.5
2004-05-17 12:57:20 51°25.974 3°12.421 132.3 0.8 24 9.5
2004-05-17 12:58:21 51°25.974 3°12.459 127.7 5.1 113 9.4
2004-05-17 12:59:21 51°25.919 3°12.729 113.3 12.9 106 9.2
2004-05-17 13:00:21 51°25.868 3°13.078 105.1 13.9 96 9.1
2004-05-17 13:01:20 51°25.841 3°13.44 104.1 14 97 9.2
2004-05-17 13:02:20 51°25.81 3°13.814 104.6 14.3 97 9.4
2004-05-17 13:03:20 51°25.808 3°14.193 92.1 14.5 86 9.6
2004-05-17 13:04:20 51°25.824 3°14.576 93 14.4 87 9.7
2004-05-17 13:05:20 51°25.839 3°14.959 94 14.4 87 9.9
2004-05-17 13:06:21 51°25.853 3°15.35 93.4 14.6 87 9.9
2004-05-17 13:07:20 51°25.871 3°15.692 85.7 11 74 10.1
2004-05-17 13:08:21 51°25.92 3°15.925 74.9 6.7 67 10.1
2004-05-17 13:09:21 51°25.938 3°15.991 111.2 1.1 2 10
2004-05-17 13:10:21 51°25.952 3°15.997 123 0.9 22 4.9
2004-05-17 13:11:21 51°25.921 3°16.138 120.6 11.4 109 9.9
2004-05-17 13:12:20 51°25.907 3°16.486 99.4 14.2 93 10
2004-05-17 13:13:21 51°25.895 3°16.872 100.1 14.4 93 10.1
2004-05-17 13:14:20 51°25.883 3°17.249 100.4 14.4 95 10.1
2004-05-17 13:15:21 51°25.871 3°17.63 99.7 12.7 93 10.2
2004-05-17 13:16:21 51°25.872 3°17.835 86.9 4.2 74 10.8
2004-05-17 13:17:20 51°25.881 3°17.858 56.4 0.5 50 5.2
2004-05-17 13:18:22 51°25.888 3°17.87 56.9 0.7 45 -999
2004-05-17 13:19:22 51°25.897 3°17.885 64 0.8 51 -999
2004-05-17 13:20:21 51°25.91 3°17.927 78.3 4.2 70 10.8
2004-05-17 13:21:19 51°25.859 3°18.123 147.1 10.4 143 11
2004-05-17 13:22:21 51°25.673 3°18.271 160.5 13.2 155 11.6
2004-05-17 13:23:21 51°25.462 3°18.36 177.8 13.1 176 11.8
2004-05-17 13:24:20 51°25.249 3°18.351 193.7 12.9 191 10.9
2004-05-17 13:25:20 51°25.036 3°18.267 198.8 13.2 194 14.1
2004-05-17 13:26:20 51°24.844 3°18.104 220.1 13 215 15
2004-05-17 13:27:20 51°24.675 3°17.881 222.6 13.3 219 18.3
2004-05-17 13:28:21 51°24.5 3°17.653 224.6 13.4 224 19.4
2004-05-17 13:29:21 51°24.352 3°17.387 234.1 13.2 228 19.4
2004-05-17 13:30:21 51°24.23 3°17.094 241.6 13.4 237 16.2
2004-05-17 13:31:21 51°24.106 3°16.8 240.8 13.3 236 15.1
2004-05-17 13:32:21 51°23.992 3°16.5 248 13.1 242 14.4
2004-05-17 13:33:20 51°23.893 3°16.194 246.7 13.1 243 14.1
2004-05-17 13:34:21 51°23.79 3°15.883 246.4 13 242 13.4
2004-05-17 13:35:21 51°23.688 3°15.578 244.1 13.1 238 13.2
2004-05-17 13:36:21 51°23.571 3°15.284 242.4 13.1 238 12.6
2004-05-17 13:37:21 51°23.456 3°14.991 241.8 13 238 11.8
2004-05-17 13:38:21 51°23.334 3°14.707 237.3 12.9 232 11.3
2004-05-17 13:39:20 51°23.208 3°14.436 238 13 233 11.4
2004-05-17 13:40:21 51°23.079 3°14.154 238.3 12.9 234 12.3
2004-05-17 13:41:26 51°22.942 3°13.849 238.9 13.1 236 12.6
2004-05-17 13:42:26 51°22.814 3°13.565 237.7 13.3 234 13
2004-05-17 13:43:28 51°22.68 3°13.271 238.3 13.1 233 13.7
2004-05-17 13:44:28 51°22.585 3°13.043 251.3 5.9 249 14.4
2004-05-17 13:45:28 51°22.587 3°13.011 315.8 0.7 80 14.6
2004-05-17 13:46:28 51°22.588 3°13.028 334.2 0.7 82 5.3
2004-05-17 13:47:29 51°22.59 3°13.044 343.8 0.6 72 -999
2004-05-17 13:48:28 51°22.599 3°13.058 350.8 2 10 14.4
2004-05-17 13:49:28 51°22.661 3°13.132 63.8 6.5 66 14.2
2004-05-17 13:50:28 51°22.659 3°13.333 115.4 8.2 115 13.7
2004-05-17 13:51:28 51°22.563 3°13.406 205.8 5.8 203 13.6
2004-05-17 13:52:26 51°22.506 3°13.33 241.7 2.3 232 13.9
2004-05-17 13:53:28 51°22.501 3°13.343 265.8 0.8 101 -999
2004-05-17 13:54:28 51°22.497 3°13.364 257.2 0.7 97 14
2004-05-17 13:55:28 51°22.464 3°13.226 255.8 10.7 251 13.9
2004-05-17 13:56:28 51°22.404 3°12.906 257.2 13.1 254 14.8
2004-05-17 13:57:28 51°22.343 3°12.569 257.8 13.2 254 15.4
2004-05-17 13:58:28 51°22.283 3°12.23 258.2 13.4 254 16.6
2004-05-17 13:59:28 51°22.252 3°11.878 266.5 13.4 265 17
2004-05-17 14:00:32 51°22.227 3°11.495 263.4 13.7 261 17.4
2004-05-17 14:01:31 51°22.199 3°11.145 262.7 13.3 260 18.3
2004-05-17 14:02:34 51°22.117 3°10.801 248 13.3 246 19.7
2004-05-17 14:03:36 51°22.011 3°10.479 240.1 13.3 238 16.4
2004-05-17 14:04:35 51°21.896 3°10.187 239.7 13.2 238 15.1
2004-05-17 14:05:35 51°21.78 3°9.889 240.2 13.2 237 13.8
2004-05-17 14:06:35 51°21.648 3°9.608 235.7 13.2 232 12.7
2004-05-17 14:07:38 51°21.51 3°9.311 236.6 13.3 234 12.2
2004-05-17 14:08:38 51°21.427 3°9.091 257.4 6.8 259 10.9
2004-05-17 14:09:38 51°21.431 3°9.007 308.5 0.2 351 10.8
2004-05-17 14:10:38 51°21.434 3°9.007 315.5 0.2 358 10.9
2004-05-17 14:11:38 51°21.451 3°8.958 288.1 4.9 286 10.8
2004-05-17 14:12:38 51°21.464 3°8.713 271.4 10.9 268 10.6
2004-05-17 14:13:38 51°21.407 3°8.397 243.1 12.9 239 10.1
2004-05-17 14:14:36 51°21.261 3°8.153 231 13.2 228 9.6
2004-05-17 14:15:38 51°21.116 3°7.871 234.3 13.4 232 9.1
2004-05-17 14:16:38 51°20.976 3°7.596 235 13.3 233 8.9
2004-05-17 14:17:38 51°20.836 3°7.322 232.2 13.3 229 8.8
2004-05-17 14:18:38 51°20.702 3°7.043 234 13.2 230 8.6
2004-05-17 14:19:38 51°20.568 3°6.764 235.5 13.3 232 8.6
2004-05-17 14:20:38 51°20.43 3°6.488 236.6 13.2 234 8.6
2004-05-17 14:21:38 51°20.295 3°6.211 236.4 13.3 235 8.6
2004-05-17 14:22:42 51°20.148 3°5.916 234 13.3 231 8.7
2004-05-17 14:23:42 51°20.012 3°5.633 234.6 13.5 232 8.8
2004-05-17 14:24:42 51°19.877 3°5.348 235.3 13.4 233 8.9
2004-05-17 14:25:48 51°19.725 3°5.037 235.5 13.4 232 8.8
2004-05-17 14:26:48 51°19.587 3°4.755 236.8 13.5 232 8.9
2004-05-17 14:27:48 51°19.447 3°4.475 236 13.6 234 8.8
2004-05-17 14:28:48 51°19.312 3°4.187 236.6 13.6 233 9
2004-05-17 14:29:48 51°19.178 3°3.9 236.7 13.4 233 9.2
2004-05-17 14:30:48 51°19.044 3°3.616 236.6 13.4 233 8.8
2004-05-17 14:31:50 51°18.908 3°3.322 235.8 13.3 233 -999
2004-05-17 14:32:50 51°18.771 3°3.043 233.8 13.4 231 -999
2004-05-17 14:33:50 51°18.66 3°2.735 245.8 13.3 242 -999
2004-05-17 14:34:50 51°18.551 3°2.425 245.9 13.4 243 -999
2004-05-17 14:35:50 51°18.44 3°2.115 244.8 13.6 241 -999
2004-05-17 14:36:50 51°18.327 3°1.803 241.8 13.6 239 -999
2004-05-17 14:37:50 51°18.213 3°1.492 241.6 13.6 238 -999
2004-05-17 14:38:48 51°18.103 3°1.191 243.8 13.5 239 9
2004-05-17 14:39:48 51°17.98 3°0.89 241.9 13.5 239 8.9
2004-05-17 14:40:48 51°17.863 3°0.585 242.4 13.4 237 9.1
2004-05-17 14:41:48 51°17.744 3°0.281 241.6 13.5 238 9.2
2004-05-17 14:42:48 51°17.623 2°59.976 240.6 13.8 237 9.6
2004-05-17 14:43:48 51°17.501 2°59.666 241 13.8 238 9.7
2004-05-17 14:44:48 51°17.376 2°59.358 242.1 13.9 239 9.8
2004-05-17 14:45:52 51°17.247 2°59.026 241.2 13.9 238 9.8
2004-05-17 14:46:51 51°17.128 2°58.719 242 13.9 237 9.9
2004-05-17 14:47:52 51°17.003 2°58.401 241.6 13.9 239 9.8
2004-05-17 14:48:52 51°16.88 2°58.085 241.3 13.9 238 9.9
2004-05-17 14:49:53 51°16.756 2°57.765 241.2 13.9 237 10
2004-05-17 14:50:52 51°16.634 2°57.457 241 14 238 10
2004-05-17 14:51:49 51°16.518 2°57.159 240.9 14 237 10
2004-05-17 14:52:53 51°16.387 2°56.825 241.1 14 238 9.9
2004-05-17 14:53:56 51°16.259 2°56.496 241.3 13.9 236 9.9
2004-05-17 14:54:56 51°16.116 2°56.206 234.8 13.9 232 9.8
2004-05-17 14:55:56 51°15.973 2°55.916 235.8 13.9 232 9.7
2004-05-17 14:56:56 51°15.822 2°55.642 230.5 13.8 228 9.4
2004-05-17 14:57:58 51°15.65 2°55.38 224.5 13.9 222 9.2
2004-05-17 14:58:57 51°15.495 2°55.159 217.9 10.6 216 9.2
2004-05-17 14:59:58 51°15.371 2°55.02 213.4 8 210 9
2004-05-17 15:00:58 51°15.253 2°54.948 194 7.4 191 8.7
2004-05-17 15:01:58 51°15.085 2°54.934 181.9 11.7 179 8.7
2004-05-17 15:02:58 51°14.907 2°54.935 183.1 10.2 181 9.4
2004-05-17 15:03:58 51°14.741 2°54.946 176.3 9.7 175 9.7
2004-05-17 15:04:58 51°14.621 2°54.967 170.6 6.3 172 9.9
2004-05-17 15:05:58 51°14.537 2°54.983 168.6 4.4 173 10
2004-05-17 15:06:58 51°14.459 2°55.006 161.6 7.5 163 10.3